Juliette, Georgia
Current Conditions -  °F | °C
As of 4:15 PM on Tuesday 21 Oct 2014 (Local Time) from K6A2 Reporting Station
Clear Clear  
Wind Chill: 73°   Ceiling: Unl
Heat Index: 73°   Visibility: 10mi
Dew Point: 52°   Wind: 9mph
Humidity: 47%   Direction: 290°WNW
Pressure: 29.96"   Gusts: NA
Location:  33.11°N, 83.8°W
Report Text: K6A2 212015Z AUTO 29008KT 10SM CLR 23/11 A2996 RMK AO2
Loading
Personal Weather Stations






























Interactive Weather Map
Tropical Storm Tracking
New forecast layout! Learn more

10-Day Weather Forecast

Advertisements
Track Severe Weather on mobile